»·PEaware :: UAL2313 KLAS-KFAT

UAL2313 :: KLAS-KFAT

FLIGHT INFORMATION

Flight Status: Arrived
Operator:
United Airlines
More flights by this operator :: More flights under this callsign
Pilot: Sergei F. (8485)
Aircraft: BOEING 737-600
(B736)
More flights by this aircraft type
Origin: KLAS Harry Reid Intl
United States
Destination: KFAT Fresno Yosemite Intl
United States
More flights between these airports :: More routes between these airports
Route: JOHKR3 KENNO TTMSN CABAB FRA
File this flight plan on PilotEdge
Remarks:
Altitude:
(Current/Filed)
40,000ft
Speed:
(Current/Filed)
461kts
Departed: 01-Dec-23 09:08 PM
Arrived: 01-Dec-23 10:29 PM
Distance/Time
Traveled:
224nm/1:21
Distance/Time
To Go:
Arrived

Flight Plot

Page will automatically refresh every two minutes.

Flight plan parsing failed; only flown route is shown


Map Options




Map Legend


Flown Route
Filed Route
Departure Airport
Arrival Airport
Navaid (VOR, NDB)
Fix

Horizontal Profiles

Position Reports

Time Latitude Longitude Heading Altitude Ground
Speed
01-Dec-23 20:33 36.080192 -115.139349 315 2077ft 0kts
01-Dec-23 20:34 36.080192 -115.139349 315 2077ft 0kts
01-Dec-23 20:35 36.080192 -115.139349 315 2077ft 0kts
01-Dec-23 20:36 36.080192 -115.139349 315 2077ft 0kts
01-Dec-23 20:37 36.080192 -115.139349 315 2077ft 0kts
01-Dec-23 20:39 36.080192 -115.139349 315 2077ft 0kts
01-Dec-23 20:40 36.080192 -115.139349 315 2077ft 0kts
01-Dec-23 20:41 36.080192 -115.139349 315 2077ft 0kts
01-Dec-23 20:42 36.080192 -115.139349 315 2077ft 0kts
01-Dec-23 20:43 36.080192 -115.139349 315 2077ft 0kts
01-Dec-23 20:44 36.080192 -115.139349 315 2077ft 0kts
01-Dec-23 20:45 36.080192 -115.139349 315 2077ft 0kts
01-Dec-23 20:46 36.080192 -115.139349 315 2077ft 0kts
01-Dec-23 20:47 36.080192 -115.139349 315 2077ft 0kts
01-Dec-23 20:48 36.080192 -115.139349 315 2077ft 0kts
01-Dec-23 20:49 36.080192 -115.139349 315 2077ft 0kts
01-Dec-23 20:50 36.080192 -115.139349 315 2077ft 0kts
01-Dec-23 20:51 36.079943 -115.139041 315 2075ft 2kts
01-Dec-23 20:52 36.079763 -115.138411 237 2074ft 2kts
01-Dec-23 20:53 36.079543 -115.138671 225 2074ft 2kts
01-Dec-23 20:54 36.079312 -115.138966 226 2074ft 0kts
01-Dec-23 20:55 36.079312 -115.138966 226 2074ft 0kts
01-Dec-23 20:56 36.079312 -115.138966 226 2074ft 0kts
01-Dec-23 20:57 36.079312 -115.138966 226 2074ft 0kts
01-Dec-23 20:58 36.079312 -115.138966 226 2074ft 0kts
01-Dec-23 20:59 36.079312 -115.138966 226 2074ft 0kts
01-Dec-23 21:00 36.078662 -115.139557 180 2078ft 5kts
01-Dec-23 21:01 36.078268 -115.137256 89 2073ft 14kts
01-Dec-23 21:02 36.078269 -115.131740 90 2059ft 16kts
01-Dec-23 21:03 36.078276 -115.125980 90 2046ft 16kts
01-Dec-23 21:04 36.077972 -115.122255 129 2041ft 7kts
01-Dec-23 21:05 36.077489 -115.121528 130 2043ft 0kts
01-Dec-23 21:05 36.077433 -115.121451 133 2043ft 2kts
01-Dec-23 21:06 36.076668 -115.121266 181 2049ft 4kts
01-Dec-23 21:07 36.076412 -115.126942 269 2056ft 90kts
01-Dec-23 21:09 36.075986 -115.192014 269 4314ft 212kts
01-Dec-23 21:10 36.054383 -115.265450 210 7117ft 267kts
01-Dec-23 21:11 35.981410 -115.300161 207 8200ft 285kts
01-Dec-23 21:11 35.923843 -115.338610 210 10250ft 292kts
01-Dec-23 21:12 35.884819 -115.417101 273 11091ft 311kts
01-Dec-23 21:13 35.888225 -115.535860 273 13525ft 357kts
01-Dec-23 21:14 35.890597 -115.661099 273 16728ft 372kts
01-Dec-23 21:16 35.893323 -115.813251 274 20169ft 387kts
01-Dec-23 21:16 35.898637 -115.924652 290 22414ft 391kts
01-Dec-23 21:17 35.966054 -116.026961 316 24945ft 392kts
01-Dec-23 21:18 36.044777 -116.122829 315 27105ft 400kts
01-Dec-23 21:19 36.124347 -116.221360 315 29014ft 408kts
01-Dec-23 21:20 36.203980 -116.320370 315 31102ft 404kts
01-Dec-23 21:21 36.283497 -116.419493 315 32850ft 402kts
01-Dec-23 21:22 36.364223 -116.515492 316 34385ft 402kts
01-Dec-23 21:23 36.444934 -116.611607 316 35586ft 402kts
01-Dec-23 21:24 36.527733 -116.705665 317 36726ft 403kts
01-Dec-23 21:25 36.610497 -116.799934 316 37803ft 404kts
01-Dec-23 21:26 36.693201 -116.894463 316 38789ft 403kts
01-Dec-23 21:27 36.784272 -116.976279 330 39507ft 408kts
01-Dec-23 21:28 36.885782 -117.040938 329 40089ft 410kts
01-Dec-23 21:29 36.987804 -117.107189 329 40143ft 411kts
01-Dec-23 21:30 37.088858 -117.173087 329 40145ft 408kts
01-Dec-23 21:31 37.188956 -117.238562 329 40143ft 407kts
01-Dec-23 21:32 37.283884 -117.313490 308 40160ft 401kts
01-Dec-23 21:33 37.319316 -117.446045 283 40138ft 409kts
01-Dec-23 21:34 37.339308 -117.587446 284 40123ft 411kts
01-Dec-23 21:35 37.350488 -117.730476 269 40126ft 420kts
01-Dec-23 21:36 37.339556 -117.876733 270 40115ft 419kts
01-Dec-23 21:37 37.328997 -118.023163 270 38399ft 422kts
01-Dec-23 21:38 37.318389 -118.168746 271 35386ft 415kts
01-Dec-23 21:39 37.307713 -118.313605 271 31840ft 420kts
01-Dec-23 21:40 37.296818 -118.457326 270 28966ft 399kts
01-Dec-23 21:41 37.286550 -118.591951 270 26516ft 377kts
01-Dec-23 21:42 37.276510 -118.719669 268 24701ft 361kts
01-Dec-23 21:43 37.252841 -118.845650 261 23105ft 381kts
01-Dec-23 21:44 37.227502 -118.973512 261 21461ft 372kts
01-Dec-23 21:45 37.203007 -119.098719 261 19585ft 374kts
01-Dec-23 21:46 37.178152 -119.224957 260 16894ft 367kts
01-Dec-23 21:47 37.154303 -119.345325 261 14661ft 346kts
01-Dec-23 21:48 37.131524 -119.459969 260 12402ft 333kts
01-Dec-23 21:49 37.101668 -119.565464 227 11038ft 317kts
01-Dec-23 21:50 37.017992 -119.581752 172 9900ft 308kts
01-Dec-23 21:51 36.936489 -119.566963 173 8869ft 288kts
01-Dec-23 21:52 36.858813 -119.553681 173 7199ft 277kts
01-Dec-23 21:53 36.783814 -119.541687 175 6135ft 266kts
01-Dec-23 21:54 36.711630 -119.532665 175 5187ft 254kts
01-Dec-23 21:55 36.643152 -119.518664 161 4264ft 247kts
01-Dec-23 21:56 36.581478 -119.489733 137 3320ft 222kts
01-Dec-23 21:57 36.594718 -119.439629 349 2634ft 181kts
01-Dec-23 21:58 36.633791 -119.474131 307 2629ft 165kts
01-Dec-23 21:59 36.659815 -119.518001 305 2596ft 154kts
01-Dec-23 22:00 36.685125 -119.561406 306 2391ft 145kts
01-Dec-23 22:01 36.706560 -119.598621 306 2122ft 129kts
01-Dec-23 22:02 36.727276 -119.634544 306 1817ft 128kts
01-Dec-23 22:03 36.748766 -119.672384 306 1173ft 134kts
01-Dec-23 22:04 36.770584 -119.710341 306 668ft 136kts
01-Dec-23 22:05 36.795322 -119.752014 307 2055ft 165kts
01-Dec-23 22:06 36.825046 -119.805068 305 2015ft 201kts
01-Dec-23 22:07 36.856383 -119.861029 306 2025ft 198kts
01-Dec-23 22:08 36.888380 -119.917480 306 2025ft 200kts
01-Dec-23 22:09 36.911273 -119.976606 259 2009ft 193kts
01-Dec-23 22:10 36.904376 -120.042736 309 2016ft 190kts
01-Dec-23 22:11 36.934249 -120.014218 111 2010ft 204kts
01-Dec-23 22:12 36.902402 -119.952367 123 2582ft 214kts
01-Dec-23 22:13 36.868696 -119.891376 123 3009ft 213kts
01-Dec-23 22:14 36.830231 -119.821466 123 3032ft 269kts
01-Dec-23 22:15 36.788108 -119.744993 123 3012ft 263kts
01-Dec-23 22:16 36.746744 -119.669992 123 3024ft 267kts
01-Dec-23 22:17 36.704454 -119.593457 124 3025ft 266kts
01-Dec-23 22:18 36.664160 -119.520938 127 3004ft 234kts
01-Dec-23 22:19 36.607497 -119.496252 163 3000ft 211kts
01-Dec-23 22:20 36.568645 -119.452198 76 3023ft 213kts
01-Dec-23 22:21 36.612969 -119.433486 310 3029ft 199kts
01-Dec-23 22:22 36.646807 -119.489170 307 3032ft 204kts
01-Dec-23 22:23 36.676348 -119.540478 305 2979ft 157kts
01-Dec-23 22:24 36.700329 -119.582804 306 2751ft 130kts
01-Dec-23 22:25 36.720936 -119.619195 305 2066ft 129kts
01-Dec-23 22:26 36.741819 -119.655910 306 1335ft 132kts
01-Dec-23 22:27 36.762904 -119.693068 305 585ft 132kts
01-Dec-23 22:28 36.778777 -119.720918 305 327ft 40kts
01-Dec-23 22:29 36.778968 -119.724754 211 334ft 9kts
01-Dec-23 22:30 36.777020 -119.726117 135 331ft 6kts
01-Dec-23 22:31 36.775378 -119.723254 126 334ft 11kts
01-Dec-23 22:32 36.773715 -119.720312 124 335ft 8kts
01-Dec-23 22:33 36.772382 -119.719573 149 329ft 4kts
01-Dec-23 22:34 36.771918 -119.719067 138 328ft 0kts
01-Dec-23 22:35 36.771918 -119.719067 138 328ft 0kts
01-Dec-23 22:36 36.771918 -119.719067 138 328ft 0kts

Navigation Log

Ident Type
Flight plan parsing failed, navigation log unavailable